KLUK/LUK METAR and TAF weather

Enter ICAO airport designator
Station Type Date Time Source
KLUK METAR 2020/07/14 16:53 UTC NOAA

KLUK 141653Z 00000KT 10SM BKN046 OVC055 28/18 A3005 RMK AO2 SLP170 T02780183


Station Type Date Time Source
KLUK Decoded METAR 2020/07/14 16:53 UTC NOAA

CINCINNATI MUN LUNKEN FLD, OH, United States (KLUK) 39-06N 84-25W 155M
Jul 14, 2020 - 12:53 PM EDT / 2020.07.14 1653 UTC
Wind: Calm:0
Visibility: 10 mile(s):0
Sky conditions: overcast
Temperature: 82.0 F (27.8 C)
Dew Point: 64.9 F (18.3 C)
Relative Humidity: 56%
Pressure (altimeter): 30.05 in. Hg (1017 hPa)
ob: KLUK 141653Z 00000KT 10SM BKN046 OVC055 28/18 A3005 RMK AO2 SLP170 T02780183
cycle: 17

Station Type Date Time Source
KLUK TAF 2020/07/14 18:24 UTC NOAA

TAF KLUK 141723Z 1418/1518 17004KT P6SM SCT050
FM142300 13003KT P6SM SKC
FM150700 00000KT 3SM BR SKC
TEMPO 1509/1511 1SM BR
FM151300 18005KT P6SM SCT050

Example: see airport list